windsock image

Welcome to Bigfield Strip.

anemometer image
     

 Help for dials.  
 
Local Met:

Wind:   
10 Min average:  
319 ° / 4.1 kts (4.3)
305° / 1.7

Temperature:  
12.1°C C
Dew Point:  
1.7°C C
QNH:  
Trend:  
1010.6 mb mb
-0.5mb/hr
BigField Strip. This image updates approximately every minute, it can have a two minute delay.  
 

Humidity:  
49 %
Sunrise:   04:43z
Sunset:   19:20z
Updated:  
  UTC
 
   More met info, trends, radar, history etc. available here   

LUTON Metar   EGGW 271450Z 25006KT CAVOK 11/M01 Q1011
 
  TAF   2015/04/27 12:15 TAF EGGW 271101Z 2712/2812 VRB04KT 9999 SCT040 BECMG 2713/2716 24010KT PROB30 TEMPO 2718/2723 7000 SHRA PROB30 TEMPO 2809/2812 27015G25KT
 
BENSON Metar   EGUB 271450Z 26007KT CAVOK 11/M03 Q1011 BLU NOSIG
 
  TAF   2015/04/27 15:03 TAF EGUB 271353Z 2715/2724 26008KT 9999 FEW045
 
Big Field view 1 icon   Big Field view 2 icon   Big Field view 3 icon   Chart AL3a in PDF icon   Chart AL3a in Word icon

WARNING:
This information is provided by the Airstrip unofficial weather station, DO NOT depend on the data provided here for any purpose.
This page is updated for latest Metars & TAF's every 5 minutes. Refresh the browser to check for the lastest.
Page designed for a minimum browser size of 1024x768.
© Copyright 2015 BigField Strip. This page auto generated 15:26 UTC - 27/04/2015   Contact Us
Valid HTML 4.01 Transitional     Windows uptime: 0 Days 12 Hours 54 Minutes 34 Seconds    WD started: 02:37 27/04/15    Free memory: 1534MB     Valid CSS!